sensor_id;sensor_type;location;lat;lon;timestamp;P1;durP1;ratioP1;P2;durP2;ratioP2
19800;SDS011;10060;48.274;12.214;2023-05-14T00:02:38;14.93;;;10.07;;
19800;SDS011;10060;48.274;12.214;2023-05-14T00:05:40;14.27;;;9.30;;
19800;SDS011;10060;48.274;12.214;2023-05-14T00:08:42;15.07;;;10.17;;
19800;SDS011;10060;48.274;12.214;2023-05-14T00:11:44;14.60;;;10.00;;
19800;SDS011;10060;48.274;12.214;2023-05-14T00:14:48;15.60;;;9.77;;
19800;SDS011;10060;48.274;12.214;2023-05-14T00:17:50;15.67;;;10.20;;
19800;SDS011;10060;48.274;12.214;2023-05-14T00:20:52;13.30;;;9.33;;
19800;SDS011;10060;48.274;12.214;2023-05-14T00:23:54;12.70;;;9.70;;
19800;SDS011;10060;48.274;12.214;2023-05-14T00:26:56;14.63;;;10.33;;
19800;SDS011;10060;48.274;12.214;2023-05-14T00:30:00;14.73;;;10.27;;
19800;SDS011;10060;48.274;12.214;2023-05-14T00:33:02;14.20;;;10.13;;
19800;SDS011;10060;48.274;12.214;2023-05-14T00:36:05;14.73;;;9.57;;
19800;SDS011;10060;48.274;12.214;2023-05-14T00:39:07;18.27;;;10.13;;
19800;SDS011;10060;48.274;12.214;2023-05-14T00:42:09;15.33;;;10.50;;
19800;SDS011;10060;48.274;12.214;2023-05-14T00:45:12;15.23;;;10.17;;
19800;SDS011;10060;48.274;12.214;2023-05-14T00:48:14;15.10;;;9.67;;
19800;SDS011;10060;48.274;12.214;2023-05-14T00:51:17;15.50;;;11.03;;
19800;SDS011;10060;48.274;12.214;2023-05-14T00:54:19;17.00;;;10.73;;
19800;SDS011;10060;48.274;12.214;2023-05-14T00:57:21;18.33;;;10.77;;
19800;SDS011;10060;48.274;12.214;2023-05-14T01:00:25;17.27;;;11.57;;
19800;SDS011;10060;48.274;12.214;2023-05-14T01:03:28;15.67;;;10.80;;
19800;SDS011;10060;48.274;12.214;2023-05-14T01:06:32;15.87;;;10.47;;
19800;SDS011;10060;48.274;12.214;2023-05-14T01:09:38;16.73;;;10.90;;
19800;SDS011;10060;48.274;12.214;2023-05-14T01:12:45;16.40;;;11.00;;
19800;SDS011;10060;48.274;12.214;2023-05-14T01:15:48;15.57;;;10.67;;
19800;SDS011;10060;48.274;12.214;2023-05-14T01:18:51;17.67;;;11.20;;
19800;SDS011;10060;48.274;12.214;2023-05-14T01:21:55;18.70;;;10.47;;
19800;SDS011;10060;48.274;12.214;2023-05-14T01:24:57;17.37;;;10.70;;
19800;SDS011;10060;48.274;12.214;2023-05-14T01:28:00;14.37;;;10.33;;
19800;SDS011;10060;48.274;12.214;2023-05-14T01:31:04;15.53;;;11.17;;
19800;SDS011;10060;48.274;12.214;2023-05-14T01:34:07;17.33;;;11.27;;
19800;SDS011;10060;48.274;12.214;2023-05-14T01:37:11;16.70;;;11.03;;
19800;SDS011;10060;48.274;12.214;2023-05-14T01:40:13;15.90;;;10.93;;
19800;SDS011;10060;48.274;12.214;2023-05-14T01:43:16;17.73;;;11.60;;
19800;SDS011;10060;48.274;12.214;2023-05-14T01:46:18;19.53;;;11.67;;
19800;SDS011;10060;48.274;12.214;2023-05-14T01:49:23;19.17;;;12.33;;
19800;SDS011;10060;48.274;12.214;2023-05-14T01:52:26;19.90;;;11.57;;
19800;SDS011;10060;48.274;12.214;2023-05-14T01:55:29;20.37;;;12.20;;
19800;SDS011;10060;48.274;12.214;2023-05-14T01:58:31;15.43;;;10.70;;
19800;SDS011;10060;48.274;12.214;2023-05-14T02:01:33;17.83;;;11.63;;
19800;SDS011;10060;48.274;12.214;2023-05-14T02:04:35;17.43;;;11.47;;
19800;SDS011;10060;48.274;12.214;2023-05-14T02:07:39;17.47;;;11.53;;
19800;SDS011;10060;48.274;12.214;2023-05-14T02:10:41;17.33;;;11.43;;
19800;SDS011;10060;48.274;12.214;2023-05-14T02:13:43;18.60;;;11.30;;
19800;SDS011;10060;48.274;12.214;2023-05-14T02:16:45;17.33;;;12.20;;
19800;SDS011;10060;48.274;12.214;2023-05-14T02:19:47;18.57;;;11.97;;
19800;SDS011;10060;48.274;12.214;2023-05-14T02:22:51;19.80;;;11.80;;
19800;SDS011;10060;48.274;12.214;2023-05-14T02:25:53;17.97;;;11.90;;
19800;SDS011;10060;48.274;12.214;2023-05-14T02:28:55;17.37;;;11.33;;
19800;SDS011;10060;48.274;12.214;2023-05-14T02:31:57;19.43;;;11.80;;
19800;SDS011;10060;48.274;12.214;2023-05-14T02:34:59;18.40;;;12.20;;
19800;SDS011;10060;48.274;12.214;2023-05-14T02:38:03;18.43;;;11.43;;
19800;SDS011;10060;48.274;12.214;2023-05-14T02:41:05;18.70;;;11.77;;
19800;SDS011;10060;48.274;12.214;2023-05-14T02:44:08;16.93;;;12.10;;
19800;SDS011;10060;48.274;12.214;2023-05-14T02:47:10;19.10;;;11.53;;
19800;SDS011;10060;48.274;12.214;2023-05-14T02:50:12;18.37;;;11.97;;
19800;SDS011;10060;48.274;12.214;2023-05-14T02:53:15;17.07;;;11.47;;
19800;SDS011;10060;48.274;12.214;2023-05-14T02:56:18;20.27;;;11.67;;
19800;SDS011;10060;48.274;12.214;2023-05-14T02:59:20;18.70;;;11.50;;
19800;SDS011;10060;48.274;12.214;2023-05-14T03:02:22;16.57;;;10.97;;
19800;SDS011;10060;48.274;12.214;2023-05-14T03:05:24;17.90;;;11.73;;
19800;SDS011;10060;48.274;12.214;2023-05-14T03:08:28;16.83;;;11.20;;
19800;SDS011;10060;48.274;12.214;2023-05-14T03:11:30;18.33;;;11.37;;
19800;SDS011;10060;48.274;12.214;2023-05-14T03:14:32;17.53;;;11.60;;
19800;SDS011;10060;48.274;12.214;2023-05-14T03:17:34;19.40;;;11.50;;
19800;SDS011;10060;48.274;12.214;2023-05-14T03:20:36;17.43;;;11.20;;
19800;SDS011;10060;48.274;12.214;2023-05-14T03:23:40;17.43;;;11.50;;
19800;SDS011;10060;48.274;12.214;2023-05-14T03:26:42;17.93;;;11.67;;
19800;SDS011;10060;48.274;12.214;2023-05-14T03:29:44;17.90;;;11.33;;
19800;SDS011;10060;48.274;12.214;2023-05-14T03:32:46;18.53;;;12.07;;
19800;SDS011;10060;48.274;12.214;2023-05-14T03:35:48;19.50;;;11.37;;
19800;SDS011;10060;48.274;12.214;2023-05-14T03:38:52;17.40;;;11.40;;
19800;SDS011;10060;48.274;12.214;2023-05-14T03:41:54;15.70;;;10.80;;
19800;SDS011;10060;48.274;12.214;2023-05-14T03:44:57;19.57;;;11.93;;
19800;SDS011;10060;48.274;12.214;2023-05-14T03:48:00;18.77;;;11.40;;
19800;SDS011;10060;48.274;12.214;2023-05-14T03:51:02;18.77;;;11.67;;
19800;SDS011;10060;48.274;12.214;2023-05-14T03:54:05;16.20;;;11.00;;
19800;SDS011;10060;48.274;12.214;2023-05-14T03:57:07;19.27;;;11.53;;
19800;SDS011;10060;48.274;12.214;2023-05-14T04:00:10;18.37;;;12.20;;
19800;SDS011;10060;48.274;12.214;2023-05-14T04:03:12;21.33;;;12.03;;
19800;SDS011;10060;48.274;12.214;2023-05-14T04:06:14;18.77;;;12.33;;
19800;SDS011;10060;48.274;12.214;2023-05-14T04:09:18;17.23;;;11.70;;
19800;SDS011;10060;48.274;12.214;2023-05-14T04:12:20;22.20;;;13.53;;
19800;SDS011;10060;48.274;12.214;2023-05-14T04:15:22;19.57;;;11.97;;
19800;SDS011;10060;48.274;12.214;2023-05-14T04:18:24;18.27;;;12.33;;
19800;SDS011;10060;48.274;12.214;2023-05-14T04:21:26;17.50;;;12.03;;
19800;SDS011;10060;48.274;12.214;2023-05-14T04:24:30;18.70;;;12.40;;
19800;SDS011;10060;48.274;12.214;2023-05-14T04:27:32;19.93;;;12.87;;
19800;SDS011;10060;48.274;12.214;2023-05-14T04:30:34;17.30;;;11.47;;
19800;SDS011;10060;48.274;12.214;2023-05-14T04:33:36;20.03;;;12.47;;
19800;SDS011;10060;48.274;12.214;2023-05-14T04:36:39;24.10;;;12.97;;
19800;SDS011;10060;48.274;12.214;2023-05-14T04:39:42;23.10;;;13.47;;
19800;SDS011;10060;48.274;12.214;2023-05-14T04:42:44;24.43;;;14.07;;
19800;SDS011;10060;48.274;12.214;2023-05-14T04:45:46;23.30;;;13.87;;
19800;SDS011;10060;48.274;12.214;2023-05-14T04:48:48;22.40;;;13.03;;
19800;SDS011;10060;48.274;12.214;2023-05-14T04:51:51;24.00;;;13.33;;
19800;SDS011;10060;48.274;12.214;2023-05-14T04:54:54;25.20;;;14.07;;
19800;SDS011;10060;48.274;12.214;2023-05-14T04:57:56;24.63;;;14.00;;
19800;SDS011;10060;48.274;12.214;2023-05-14T05:00:58;21.97;;;13.33;;
19800;SDS011;10060;48.274;12.214;2023-05-14T05:04:01;22.30;;;13.47;;
19800;SDS011;10060;48.274;12.214;2023-05-14T05:07:03;25.47;;;14.60;;
19800;SDS011;10060;48.274;12.214;2023-05-14T05:10:07;23.67;;;13.90;;
19800;SDS011;10060;48.274;12.214;2023-05-14T05:13:10;23.63;;;13.97;;
19800;SDS011;10060;48.274;12.214;2023-05-14T05:16:12;25.27;;;14.60;;
19800;SDS011;10060;48.274;12.214;2023-05-14T05:19:14;26.87;;;15.40;;
19800;SDS011;10060;48.274;12.214;2023-05-14T05:22:16;22.43;;;14.17;;
19800;SDS011;10060;48.274;12.214;2023-05-14T05:25:20;21.77;;;13.33;;
19800;SDS011;10060;48.274;12.214;2023-05-14T05:28:22;23.57;;;14.13;;
19800;SDS011;10060;48.274;12.214;2023-05-14T05:31:24;26.07;;;13.77;;
19800;SDS011;10060;48.274;12.214;2023-05-14T05:34:26;23.17;;;13.00;;
19800;SDS011;10060;48.274;12.214;2023-05-14T05:37:29;19.70;;;12.67;;
19800;SDS011;10060;48.274;12.214;2023-05-14T05:40:32;24.90;;;14.37;;
19800;SDS011;10060;48.274;12.214;2023-05-14T05:43:34;25.80;;;13.17;;
19800;SDS011;10060;48.274;12.214;2023-05-14T05:46:36;24.63;;;14.10;;
19800;SDS011;10060;48.274;12.214;2023-05-14T05:49:38;23.37;;;14.50;;
19800;SDS011;10060;48.274;12.214;2023-05-14T05:52:40;25.87;;;14.83;;
19800;SDS011;10060;48.274;12.214;2023-05-14T05:55:44;26.57;;;14.97;;
19800;SDS011;10060;48.274;12.214;2023-05-14T05:58:46;25.80;;;14.63;;
19800;SDS011;10060;48.274;12.214;2023-05-14T06:01:48;27.90;;;14.90;;
19800;SDS011;10060;48.274;12.214;2023-05-14T06:04:50;26.20;;;14.47;;
19800;SDS011;10060;48.274;12.214;2023-05-14T06:07:52;26.87;;;15.00;;
19800;SDS011;10060;48.274;12.214;2023-05-14T06:10:56;28.30;;;14.83;;
19800;SDS011;10060;48.274;12.214;2023-05-14T06:13:58;25.70;;;14.20;;
19800;SDS011;10060;48.274;12.214;2023-05-14T06:17:00;28.17;;;14.80;;
19800;SDS011;10060;48.274;12.214;2023-05-14T06:20:02;25.70;;;14.53;;
19800;SDS011;10060;48.274;12.214;2023-05-14T06:23:07;23.30;;;13.53;;
19800;SDS011;10060;48.274;12.214;2023-05-14T06:26:12;26.17;;;14.20;;
19800;SDS011;10060;48.274;12.214;2023-05-14T06:29:14;22.67;;;14.27;;
19800;SDS011;10060;48.274;12.214;2023-05-14T06:32:17;20.80;;;13.17;;
19800;SDS011;10060;48.274;12.214;2023-05-14T06:35:19;21.13;;;13.10;;
19800;SDS011;10060;48.274;12.214;2023-05-14T06:38:22;22.90;;;13.63;;
19800;SDS011;10060;48.274;12.214;2023-05-14T06:41:25;20.63;;;12.50;;
19800;SDS011;10060;48.274;12.214;2023-05-14T06:44:28;21.10;;;12.07;;
19800;SDS011;10060;48.274;12.214;2023-05-14T06:47:30;22.43;;;12.80;;
19800;SDS011;10060;48.274;12.214;2023-05-14T06:50:32;20.60;;;13.07;;
19800;SDS011;10060;48.274;12.214;2023-05-14T06:53:34;18.60;;;12.33;;
19800;SDS011;10060;48.274;12.214;2023-05-14T06:56:38;24.60;;;13.80;;
19800;SDS011;10060;48.274;12.214;2023-05-14T06:59:40;22.83;;;12.70;;
19800;SDS011;10060;48.274;12.214;2023-05-14T07:02:42;20.30;;;12.43;;
19800;SDS011;10060;48.274;12.214;2023-05-14T07:05:44;19.07;;;11.37;;
19800;SDS011;10060;48.274;12.214;2023-05-14T07:08:46;21.23;;;10.90;;
19800;SDS011;10060;48.274;12.214;2023-05-14T07:11:50;21.40;;;11.17;;
19800;SDS011;10060;48.274;12.214;2023-05-14T07:14:52;20.10;;;11.53;;
19800;SDS011;10060;48.274;12.214;2023-05-14T07:17:55;18.23;;;11.80;;
19800;SDS011;10060;48.274;12.214;2023-05-14T07:20:58;17.93;;;10.67;;
19800;SDS011;10060;48.274;12.214;2023-05-14T07:24:00;16.63;;;11.30;;
19800;SDS011;10060;48.274;12.214;2023-05-14T07:27:03;18.90;;;11.27;;
19800;SDS011;10060;48.274;12.214;2023-05-14T07:30:07;15.63;;;9.97;;
19800;SDS011;10060;48.274;12.214;2023-05-14T07:33:09;16.33;;;10.47;;
19800;SDS011;10060;48.274;12.214;2023-05-14T07:36:12;16.63;;;10.30;;
19800;SDS011;10060;48.274;12.214;2023-05-14T07:39:14;20.63;;;11.20;;
19800;SDS011;10060;48.274;12.214;2023-05-14T07:42:17;15.87;;;10.57;;
19800;SDS011;10060;48.274;12.214;2023-05-14T07:45:19;19.53;;;11.13;;
19800;SDS011;10060;48.274;12.214;2023-05-14T07:48:21;14.00;;;10.00;;
19800;SDS011;10060;48.274;12.214;2023-05-14T07:51:23;13.83;;;9.67;;
19800;SDS011;10060;48.274;12.214;2023-05-14T07:54:27;15.40;;;9.67;;
19800;SDS011;10060;48.274;12.214;2023-05-14T07:57:30;15.00;;;10.67;;
19800;SDS011;10060;48.274;12.214;2023-05-14T08:00:32;14.50;;;9.83;;
19800;SDS011;10060;48.274;12.214;2023-05-14T08:03:35;13.10;;;9.73;;
19800;SDS011;10060;48.274;12.214;2023-05-14T08:06:37;13.80;;;9.73;;
19800;SDS011;10060;48.274;12.214;2023-05-14T08:09:39;14.20;;;9.50;;
19800;SDS011;10060;48.274;12.214;2023-05-14T08:12:43;14.27;;;10.00;;
19800;SDS011;10060;48.274;12.214;2023-05-14T08:15:45;13.53;;;8.67;;
19800;SDS011;10060;48.274;12.214;2023-05-14T08:18:47;12.87;;;9.33;;
19800;SDS011;10060;48.274;12.214;2023-05-14T08:21:49;13.67;;;10.00;;
19800;SDS011;10060;48.274;12.214;2023-05-14T08:24:51;12.13;;;9.07;;
19800;SDS011;10060;48.274;12.214;2023-05-14T08:27:55;13.07;;;9.10;;
19800;SDS011;10060;48.274;12.214;2023-05-14T08:30:58;13.00;;;9.27;;
19800;SDS011;10060;48.274;12.214;2023-05-14T08:34:00;13.50;;;9.60;;
19800;SDS011;10060;48.274;12.214;2023-05-14T08:37:03;15.97;;;10.13;;
19800;SDS011;10060;48.274;12.214;2023-05-14T08:40:05;13.53;;;10.00;;
19800;SDS011;10060;48.274;12.214;2023-05-14T08:43:09;12.63;;;9.23;;
19800;SDS011;10060;48.274;12.214;2023-05-14T08:46:12;13.80;;;9.53;;
19800;SDS011;10060;48.274;12.214;2023-05-14T08:49:18;15.20;;;10.17;;
19800;SDS011;10060;48.274;12.214;2023-05-14T08:52:22;13.33;;;9.20;;
19800;SDS011;10060;48.274;12.214;2023-05-14T08:55:25;15.00;;;9.53;;
19800;SDS011;10060;48.274;12.214;2023-05-14T08:58:28;13.83;;;10.00;;
19800;SDS011;10060;48.274;12.214;2023-05-14T09:01:30;17.17;;;10.50;;
19800;SDS011;10060;48.274;12.214;2023-05-14T09:04:32;15.33;;;9.40;;
19800;SDS011;10060;48.274;12.214;2023-05-14T09:07:36;14.67;;;9.97;;
19800;SDS011;10060;48.274;12.214;2023-05-14T09:10:38;14.77;;;9.90;;
19800;SDS011;10060;48.274;12.214;2023-05-14T09:13:41;14.00;;;9.90;;
19800;SDS011;10060;48.274;12.214;2023-05-14T09:16:43;11.93;;;8.90;;
19800;SDS011;10060;48.274;12.214;2023-05-14T09:19:46;14.97;;;9.90;;
19800;SDS011;10060;48.274;12.214;2023-05-14T09:22:52;12.47;;;8.90;;
19800;SDS011;10060;48.274;12.214;2023-05-14T09:25:54;14.53;;;9.60;;
19800;SDS011;10060;48.274;12.214;2023-05-14T09:28:57;15.53;;;10.57;;
19800;SDS011;10060;48.274;12.214;2023-05-14T09:32:01;13.13;;;10.00;;
19800;SDS011;10060;48.274;12.214;2023-05-14T09:35:11;14.90;;;10.20;;
19800;SDS011;10060;48.274;12.214;2023-05-14T09:38:16;13.83;;;10.13;;
19800;SDS011;10060;48.274;12.214;2023-05-14T09:41:18;14.23;;;10.27;;
19800;SDS011;10060;48.274;12.214;2023-05-14T09:44:23;14.00;;;10.07;;
19800;SDS011;10060;48.274;12.214;2023-05-14T09:47:25;14.87;;;10.30;;
19800;SDS011;10060;48.274;12.214;2023-05-14T09:50:27;14.60;;;9.20;;
19800;SDS011;10060;48.274;12.214;2023-05-14T09:53:29;14.50;;;9.10;;
19800;SDS011;10060;48.274;12.214;2023-05-14T09:56:34;12.47;;;9.20;;
19800;SDS011;10060;48.274;12.214;2023-05-14T09:59:39;12.07;;;8.53;;
19800;SDS011;10060;48.274;12.214;2023-05-14T10:02:41;12.73;;;9.50;;
19800;SDS011;10060;48.274;12.214;2023-05-14T10:05:45;13.00;;;9.07;;
19800;SDS011;10060;48.274;12.214;2023-05-14T10:08:51;12.63;;;9.03;;
19800;SDS011;10060;48.274;12.214;2023-05-14T10:11:56;15.27;;;10.10;;
19800;SDS011;10060;48.274;12.214;2023-05-14T10:15:02;12.90;;;8.77;;
19800;SDS011;10060;48.274;12.214;2023-05-14T10:18:05;13.20;;;8.83;;
19800;SDS011;10060;48.274;12.214;2023-05-14T10:21:09;12.07;;;9.37;;
19800;SDS011;10060;48.274;12.214;2023-05-14T10:24:11;12.33;;;8.53;;
19800;SDS011;10060;48.274;12.214;2023-05-14T10:27:14;13.20;;;8.67;;
19800;SDS011;10060;48.274;12.214;2023-05-14T10:30:19;12.60;;;8.23;;
19800;SDS011;10060;48.274;12.214;2023-05-14T10:33:22;11.77;;;8.80;;
19800;SDS011;10060;48.274;12.214;2023-05-14T10:36:24;11.57;;;8.70;;
19800;SDS011;10060;48.274;12.214;2023-05-14T10:39:39;13.90;;;9.43;;
19800;SDS011;10060;48.274;12.214;2023-05-14T10:42:41;10.83;;;8.80;;
19800;SDS011;10060;48.274;12.214;2023-05-14T10:45:45;12.50;;;9.30;;
19800;SDS011;10060;48.274;12.214;2023-05-14T10:48:48;14.00;;;9.50;;
19800;SDS011;10060;48.274;12.214;2023-05-14T10:51:51;11.40;;;8.83;;
19800;SDS011;10060;48.274;12.214;2023-05-14T10:54:54;11.33;;;8.07;;
19800;SDS011;10060;48.274;12.214;2023-05-14T10:57:57;12.43;;;7.83;;
19800;SDS011;10060;48.274;12.214;2023-05-14T11:01:01;12.20;;;9.15;;
19800;SDS011;10060;48.274;12.214;2023-05-14T11:04:05;10.82;;;8.55;;
19800;SDS011;10060;48.274;12.214;2023-05-14T11:07:08;12.10;;;8.87;;
19800;SDS011;10060;48.274;12.214;2023-05-14T11:10:11;11.43;;;7.50;;
19800;SDS011;10060;48.274;12.214;2023-05-14T11:13:13;10.03;;;8.10;;
19800;SDS011;10060;48.274;12.214;2023-05-14T11:16:19;12.40;;;8.40;;
19800;SDS011;10060;48.274;12.214;2023-05-14T11:19:23;12.00;;;8.97;;
19800;SDS011;10060;48.274;12.214;2023-05-14T11:22:25;11.60;;;8.57;;
19800;SDS011;10060;48.274;12.214;2023-05-14T11:25:27;10.07;;;7.60;;
19800;SDS011;10060;48.274;12.214;2023-05-14T11:28:29;8.20;;;7.22;;
19800;SDS011;10060;48.274;12.214;2023-05-14T11:31:33;9.48;;;7.75;;
19800;SDS011;10060;48.274;12.214;2023-05-14T11:34:36;11.43;;;8.05;;
19800;SDS011;10060;48.274;12.214;2023-05-14T11:37:38;11.20;;;7.43;;
19800;SDS011;10060;48.274;12.214;2023-05-14T11:40:40;9.57;;;7.10;;
19800;SDS011;10060;48.274;12.214;2023-05-14T11:43:42;11.63;;;8.68;;
19800;SDS011;10060;48.274;12.214;2023-05-14T11:46:53;10.40;;;7.80;;
19800;SDS011;10060;48.274;12.214;2023-05-14T11:49:56;9.80;;;7.43;;
19800;SDS011;10060;48.274;12.214;2023-05-14T11:52:58;10.43;;;7.93;;
19800;SDS011;10060;48.274;12.214;2023-05-14T11:56:00;9.95;;;7.38;;
19800;SDS011;10060;48.274;12.214;2023-05-14T11:59:02;9.07;;;7.10;;
19800;SDS011;10060;48.274;12.214;2023-05-14T12:02:08;10.50;;;7.35;;
19800;SDS011;10060;48.274;12.214;2023-05-14T12:05:11;8.85;;;7.00;;
19800;SDS011;10060;48.274;12.214;2023-05-14T12:08:19;8.68;;;6.55;;
19800;SDS011;10060;48.274;12.214;2023-05-14T12:11:22;8.05;;;6.50;;
19800;SDS011;10060;48.274;12.214;2023-05-14T12:14:24;9.45;;;6.93;;
19800;SDS011;10060;48.274;12.214;2023-05-14T12:17:27;8.10;;;6.22;;
19800;SDS011;10060;48.274;12.214;2023-05-14T12:20:30;8.35;;;6.43;;
19800;SDS011;10060;48.274;12.214;2023-05-14T12:23:32;9.25;;;6.20;;
19800;SDS011;10060;48.274;12.214;2023-05-14T12:26:34;8.20;;;6.38;;
19800;SDS011;10060;48.274;12.214;2023-05-14T12:29:37;8.05;;;6.25;;
19800;SDS011;10060;48.274;12.214;2023-05-14T12:32:41;8.80;;;7.00;;
19800;SDS011;10060;48.274;12.214;2023-05-14T12:35:43;7.43;;;6.45;;
19800;SDS011;10060;48.274;12.214;2023-05-14T12:38:46;8.63;;;6.15;;
19800;SDS011;10060;48.274;12.214;2023-05-14T12:41:48;7.45;;;6.03;;
19800;SDS011;10060;48.274;12.214;2023-05-14T12:44:50;7.85;;;5.68;;
19800;SDS011;10060;48.274;12.214;2023-05-14T12:47:53;8.32;;;5.85;;
19800;SDS011;10060;48.274;12.214;2023-05-14T12:50:55;8.30;;;6.20;;
19800;SDS011;10060;48.274;12.214;2023-05-14T12:53:59;7.82;;;6.38;;
19800;SDS011;10060;48.274;12.214;2023-05-14T12:57:02;8.82;;;6.25;;
19800;SDS011;10060;48.274;12.214;2023-05-14T13:00:05;7.75;;;5.95;;
19800;SDS011;10060;48.274;12.214;2023-05-14T13:03:11;9.18;;;6.55;;
19800;SDS011;10060;48.274;12.214;2023-05-14T13:06:13;8.20;;;6.55;;
19800;SDS011;10060;48.274;12.214;2023-05-14T13:09:16;8.55;;;6.38;;
19800;SDS011;10060;48.274;12.214;2023-05-14T13:12:18;10.70;;;7.07;;
19800;SDS011;10060;48.274;12.214;2023-05-14T13:15:20;9.43;;;6.93;;
19800;SDS011;10060;48.274;12.214;2023-05-14T13:18:23;8.93;;;5.90;;
19800;SDS011;10060;48.274;12.214;2023-05-14T13:21:26;8.98;;;6.68;;
19800;SDS011;10060;48.274;12.214;2023-05-14T13:24:28;8.18;;;6.28;;
19800;SDS011;10060;48.274;12.214;2023-05-14T13:27:31;7.07;;;5.82;;
19800;SDS011;10060;48.274;12.214;2023-05-14T13:30:34;6.50;;;5.47;;
19800;SDS011;10060;48.274;12.214;2023-05-14T13:33:38;7.80;;;5.80;;
19800;SDS011;10060;48.274;12.214;2023-05-14T13:36:41;7.18;;;5.63;;
19800;SDS011;10060;48.274;12.214;2023-05-14T13:39:43;6.93;;;5.60;;
19800;SDS011;10060;48.274;12.214;2023-05-14T13:42:45;7.70;;;5.45;;
19800;SDS011;10060;48.274;12.214;2023-05-14T13:45:47;7.65;;;5.70;;
19800;SDS011;10060;48.274;12.214;2023-05-14T13:48:51;6.22;;;5.38;;
19800;SDS011;10060;48.274;12.214;2023-05-14T13:51:53;8.13;;;6.00;;
19800;SDS011;10060;48.274;12.214;2023-05-14T13:54:55;6.15;;;5.10;;
19800;SDS011;10060;48.274;12.214;2023-05-14T13:57:57;6.72;;;5.57;;
19800;SDS011;10060;48.274;12.214;2023-05-14T14:00:59;7.38;;;5.45;;
19800;SDS011;10060;48.274;12.214;2023-05-14T14:04:03;7.28;;;5.90;;
19800;SDS011;10060;48.274;12.214;2023-05-14T14:07:05;10.30;;;5.38;;
19800;SDS011;10060;48.274;12.214;2023-05-14T14:10:08;8.20;;;4.45;;
19800;SDS011;10060;48.274;12.214;2023-05-14T14:13:11;18.00;;;5.72;;
19800;SDS011;10060;48.274;12.214;2023-05-14T14:16:13;7.85;;;3.80;;
19800;SDS011;10060;48.274;12.214;2023-05-14T14:19:17;4.15;;;2.50;;
19800;SDS011;10060;48.274;12.214;2023-05-14T14:22:19;4.00;;;2.75;;
19800;SDS011;10060;48.274;12.214;2023-05-14T14:25:21;5.18;;;2.65;;
19800;SDS011;10060;48.274;12.214;2023-05-14T14:28:23;3.78;;;2.40;;
19800;SDS011;10060;48.274;12.214;2023-05-14T14:31:25;4.05;;;3.30;;
19800;SDS011;10060;48.274;12.214;2023-05-14T14:34:29;4.30;;;3.55;;
19800;SDS011;10060;48.274;12.214;2023-05-14T14:37:31;7.40;;;4.40;;
19800;SDS011;10060;48.274;12.214;2023-05-14T14:40:33;5.55;;;3.88;;
19800;SDS011;10060;48.274;12.214;2023-05-14T14:43:36;4.75;;;4.18;;
19800;SDS011;10060;48.274;12.214;2023-05-14T14:46:39;5.88;;;4.60;;
19800;SDS011;10060;48.274;12.214;2023-05-14T14:49:43;5.95;;;5.35;;
19800;SDS011;10060;48.274;12.214;2023-05-14T14:52:45;6.50;;;4.90;;
19800;SDS011;10060;48.274;12.214;2023-05-14T14:55:48;6.18;;;5.05;;
19800;SDS011;10060;48.274;12.214;2023-05-14T14:58:50;6.93;;;5.35;;
19800;SDS011;10060;48.274;12.214;2023-05-14T15:01:52;5.40;;;4.55;;
19800;SDS011;10060;48.274;12.214;2023-05-14T15:04:56;4.18;;;3.67;;
19800;SDS011;10060;48.274;12.214;2023-05-14T15:07:58;2.67;;;2.47;;
19800;SDS011;10060;48.274;12.214;2023-05-14T15:11:00;3.43;;;2.40;;
19800;SDS011;10060;48.274;12.214;2023-05-14T15:14:02;1.98;;;1.88;;
19800;SDS011;10060;48.274;12.214;2023-05-14T15:17:04;2.33;;;1.90;;
19800;SDS011;10060;48.274;12.214;2023-05-14T15:20:09;1.87;;;1.77;;
19800;SDS011;10060;48.274;12.214;2023-05-14T15:23:11;1.80;;;1.40;;
19800;SDS011;10060;48.274;12.214;2023-05-14T15:26:13;2.30;;;1.80;;
19800;SDS011;10060;48.274;12.214;2023-05-14T15:29:15;2.73;;;2.30;;
19800;SDS011;10060;48.274;12.214;2023-05-14T15:32:18;2.23;;;2.03;;
19800;SDS011;10060;48.274;12.214;2023-05-14T15:35:21;2.63;;;2.43;;
19800;SDS011;10060;48.274;12.214;2023-05-14T15:38:24;2.90;;;2.60;;
19800;SDS011;10060;48.274;12.214;2023-05-14T15:41:26;3.27;;;2.63;;
19800;SDS011;10060;48.274;12.214;2023-05-14T15:44:28;3.40;;;3.00;;
19800;SDS011;10060;48.274;12.214;2023-05-14T15:47:30;5.50;;;3.00;;
19800;SDS011;10060;48.274;12.214;2023-05-14T15:50:34;3.87;;;3.00;;
19800;SDS011;10060;48.274;12.214;2023-05-14T15:53:37;4.13;;;3.30;;
19800;SDS011;10060;48.274;12.214;2023-05-14T15:56:39;3.40;;;3.10;;
19800;SDS011;10060;48.274;12.214;2023-05-14T15:59:41;3.37;;;3.07;;
19800;SDS011;10060;48.274;12.214;2023-05-14T16:02:44;3.97;;;3.47;;
19800;SDS011;10060;48.274;12.214;2023-05-14T16:05:48;4.60;;;3.10;;
19800;SDS011;10060;48.274;12.214;2023-05-14T16:08:51;5.03;;;3.80;;
19800;SDS011;10060;48.274;12.214;2023-05-14T16:11:53;4.10;;;3.70;;
19800;SDS011;10060;48.274;12.214;2023-05-14T16:14:55;6.03;;;4.40;;
19800;SDS011;10060;48.274;12.214;2023-05-14T16:17:58;5.33;;;4.03;;
19800;SDS011;10060;48.274;12.214;2023-05-14T16:21:02;4.97;;;3.70;;
19800;SDS011;10060;48.274;12.214;2023-05-14T16:24:05;5.53;;;4.23;;
19800;SDS011;10060;48.274;12.214;2023-05-14T16:27:07;4.30;;;3.90;;
19800;SDS011;10060;48.274;12.214;2023-05-14T16:30:10;4.77;;;3.97;;
19800;SDS011;10060;48.274;12.214;2023-05-14T16:33:12;3.83;;;3.37;;
19800;SDS011;10060;48.274;12.214;2023-05-14T16:36:15;4.43;;;3.50;;
19800;SDS011;10060;48.274;12.214;2023-05-14T16:39:18;5.53;;;4.03;;
19800;SDS011;10060;48.274;12.214;2023-05-14T16:42:20;4.60;;;4.10;;
19800;SDS011;10060;48.274;12.214;2023-05-14T16:45:22;4.83;;;4.33;;
19800;SDS011;10060;48.274;12.214;2023-05-14T16:48:24;5.97;;;5.07;;
19800;SDS011;10060;48.274;12.214;2023-05-14T16:51:28;5.77;;;4.63;;
19800;SDS011;10060;48.274;12.214;2023-05-14T16:54:30;6.00;;;5.40;;
19800;SDS011;10060;48.274;12.214;2023-05-14T16:57:32;6.17;;;5.50;;
19800;SDS011;10060;48.274;12.214;2023-05-14T17:00:34;5.50;;;4.87;;
19800;SDS011;10060;48.274;12.214;2023-05-14T17:03:36;5.87;;;5.00;;
19800;SDS011;10060;48.274;12.214;2023-05-14T17:06:40;7.13;;;5.83;;
19800;SDS011;10060;48.274;12.214;2023-05-14T17:09:42;5.87;;;5.07;;
19800;SDS011;10060;48.274;12.214;2023-05-14T17:12:44;6.00;;;5.40;;
19800;SDS011;10060;48.274;12.214;2023-05-14T17:15:46;7.47;;;5.70;;
19800;SDS011;10060;48.274;12.214;2023-05-14T17:18:48;7.37;;;5.23;;
19800;SDS011;10060;48.274;12.214;2023-05-14T17:21:52;7.83;;;5.83;;
19800;SDS011;10060;48.274;12.214;2023-05-14T17:24:54;5.80;;;5.17;;
19800;SDS011;10060;48.274;12.214;2023-05-14T17:27:56;7.13;;;5.53;;
19800;SDS011;10060;48.274;12.214;2023-05-14T17:30:58;7.10;;;5.33;;
19800;SDS011;10060;48.274;12.214;2023-05-14T17:34:01;9.03;;;6.53;;
19800;SDS011;10060;48.274;12.214;2023-05-14T17:37:04;6.53;;;5.50;;
19800;SDS011;10060;48.274;12.214;2023-05-14T17:40:07;8.73;;;6.13;;
19800;SDS011;10060;48.274;12.214;2023-05-14T17:43:10;8.10;;;6.00;;
19800;SDS011;10060;48.274;12.214;2023-05-14T17:46:12;8.23;;;6.33;;
19800;SDS011;10060;48.274;12.214;2023-05-14T17:49:14;7.83;;;5.97;;